^^
Saratoga-Weather Station Historical Data
Daily Summary for July 18, 2020 Units:  English    Metric   Both
Daily Weekly Monthly Yearly Custom
  High: Low: Average:
Temperature: 46.8 °F 38.7 °F 41.5 °F
Dew Point: 45.1 °F 37.6 °F 40.3 °F
Humidity: 97% 93% 95%
Wind Speed: 0.9mph 0mph 0.1mph
Wind Gust: 3mph - -
Wind- - South
Pressure: 30.2 in 30.2 in -
Precipitation: 0 in    
Historical Graphs
 
 
Tabular Data for July 18, 2020
Time Temperature Dew Point Pressure Wind Wind Speed Wind Gust Humidity Rainfall Rate (Hourly) solar
00:02 46.8 °F 45.1 °F 30.2 in Calm   1 mph 94% 0 in 0 W/m2
00:07 46.6 °F 45 °F 30.2 in Calm   2 mph 94% 0 in 0 W/m2
00:12 46.6 °F 44.6 °F 30.2 in Calm     93% 0 in 0 W/m2
00:17 46.4 °F 44.4 °F 30.2 in Calm     93% 0 in 0 W/m2
00:22 46.2 °F 44.2 °F 30.2 in Calm   2 mph 93% 0 in 0 W/m2
00:27 46 °F 44.1 °F 30.2 in Calm   2 mph 93% 0 in 0 W/m2
00:47 45.5 °F 43.9 °F 30.2 in Calm     94% 0 in 0 W/m2
00:52 45.1 °F 43.5 °F 30.2 in Calm   2 mph 94% 0 in 0 W/m2
00:57 45.1 °F 43.5 °F 30.2 in Calm   3 mph 94% 0 in 0 W/m2
01:02 45 °F 43.3 °F 30.2 in Calm     94% 0 in 0 W/m2
01:07 45 °F 43.3 °F 30.2 in WNW 0.9 mph 3 mph 94% 0 in 0 W/m2
01:12 45 °F 43.3 °F 30.2 in Calm     94% 0 in 0 W/m2
01:17 44.8 °F 43.2 °F 30.2 in Calm     94% 0 in 0 W/m2
01:22 44.4 °F 42.8 °F 30.2 in SE 0.9 mph 2 mph 94% 0 in 0 W/m2
01:27 44.2 °F 42.6 °F 30.2 in Calm     94% 0 in 0 W/m2
01:32 44.1 °F 42.4 °F 30.2 in Calm   2 mph 94% 0 in 0 W/m2
01:37 43.9 °F 42.3 °F 30.2 in Calm   2 mph 94% 0 in 0 W/m2
01:42 43.3 °F 41.7 °F 30.2 in Calm   2 mph 94% 0 in 0 W/m2
01:47 43.2 °F 41.5 °F 30.2 in Calm     94% 0 in 0 W/m2
01:52 42.8 °F 41.2 °F 30.2 in Calm   2 mph 94% 0 in 0 W/m2
01:57 42.4 °F 40.8 °F 30.2 in Calm     94% 0 in 0 W/m2
02:02 42.3 °F 40.6 °F 30.2 in Calm     94% 0 in 0 W/m2
02:07 42.1 °F 40.8 °F 30.2 in Calm     95% 0 in 0 W/m2
02:12 41.7 °F 40.5 °F 30.2 in Calm     95% 0 in 0 W/m2
02:17 41.5 °F 40.3 °F 30.2 in SE 0.9 mph 1 mph 95% 0 in 0 W/m2
02:22 41.4 °F 40.1 °F 30.2 in Calm     95% 0 in 0 W/m2
02:27 41.2 °F 39.9 °F 30.2 in Calm     95% 0 in 0 W/m2
02:32 41 °F 39.7 °F 30.2 in Calm     95% 0 in 0 W/m2
02:37 40.6 °F 39.4 °F 30.2 in Calm     95% 0 in 0 W/m2
02:42 40.5 °F 39.2 °F 30.2 in Calm     95% 0 in 0 W/m2
02:47 40.3 °F 39 °F 30.2 in Calm     95% 0 in 0 W/m2
02:52 40.3 °F 39 °F 30.2 in Calm     95% 0 in 0 W/m2
02:57 40.3 °F 39 °F 30.2 in Calm     95% 0 in 0 W/m2
03:02 40.3 °F 39.2 °F 30.2 in Calm   2 mph 96% 0 in 0 W/m2
03:07 40.1 °F 39 °F 30.2 in Calm     96% 0 in 0 W/m2
03:12 39.9 °F 38.7 °F 30.2 in Calm   2 mph 95% 0 in 0 W/m2
03:17 39.7 °F 38.5 °F 30.2 in Calm     95% 0 in 0 W/m2
03:22 39.6 °F 38.3 °F 30.2 in Calm     95% 0 in 0 W/m2
03:27 39.4 °F 38.3 °F 30.2 in Calm     96% 0 in 0 W/m2
03:32 39 °F 37.8 °F 30.2 in Calm   1 mph 95% 0 in 0 W/m2
03:37 38.8 °F 37.8 °F 30.2 in Calm     96% 0 in 0 W/m2
03:42 38.8 °F 37.8 °F 30.2 in Calm     96% 0 in 0 W/m2
03:48 38.8 °F 37.8 °F 30.2 in Calm     96% 0 in 0 W/m2
03:53 38.8 °F 37.8 °F 30.2 in Calm   1 mph 96% 0 in 0 W/m2
03:58 38.7 °F 37.6 °F 30.2 in Calm     96% 0 in 0 W/m2
04:03 38.7 °F 37.6 °F 30.2 in Calm     96% 0 in 0 W/m2
04:08 38.7 °F 37.6 °F 30.2 in Calm     96% 0 in 0 W/m2
04:13 38.8 °F 37.8 °F 30.2 in Calm     96% 0 in 0 W/m2
04:18 39.2 °F 38.1 °F 30.2 in Calm     96% 0 in 0 W/m2
04:23 39.4 °F 38.7 °F 30.2 in Calm     97% 0 in 0 W/m2
04:28 39.4 °F 38.7 °F 30.2 in Calm     97% 0 in 0 W/m2
04:33 39.6 °F 38.8 °F 30.2 in Calm     97% 0 in 0 W/m2
04:38 39.7 °F 39 °F 30.2 in SE 0.9 mph 2 mph 97% 0 in 0 W/m2
04:43 40.1 °F 39.4 °F 30.2 in SE 0.9 mph 2 mph 97% 0 in 0 W/m2
04:48 40.1 °F 39.4 °F 30.2 in Calm     97% 0 in 0 W/m2
04:53 39.9 °F 39.2 °F 30.2 in Calm   1 mph 97% 0 in 0 W/m2
04:58 39.9 °F 39.2 °F 30.2 in Calm     97% 0 in 0 W/m2
05:03 39.9 °F 39.2 °F 30.2 in Calm     97% 0 in 0 W/m2
05:08 39.9 °F 39.2 °F 30.2 in Calm     97% 0 in 0 W/m2
05:13 39.9 °F 39.2 °F 30.2 in Calm     97% 0 in 0 W/m2
05:18 39.9 °F 39.2 °F 30.2 in Calm     97% 0 in 0 W/m2
05:23 39.7 °F 39 °F 30.2 in Calm     97% 0 in 0 W/m2
Juneau County Weather
Compliments of Weather Underground - 2 mb